Time;durP1;ratioP1;P1;durP2;ratioP2;P2;SDS_P1;SDS_P2;PMS_P1;PMS_P2;Temp;Humidity;BMP_temperature;BMP_pressure;BME280_temperature;BME280_humidity;BME280_pressure;Samples;Min_cycle;Max_cycle;Signal;HPM_P1;HPM_P2
2022/09/10 00:01:26;;;;;;;5.95;4.30;;;;;;;13.58;48.69;101703.72;1759743;81;21030;-88
2022/09/10 00:03:53;;;;;;;11.73;7.45;;;;;;;13.58;49.07;101701.55;1760144;81;21018;-88
2022/09/10 00:06:21;;;;;;;19.30;10.13;;;;;;;13.58;49.10;101701.55;1752926;80;20943;-88
2022/09/10 00:08:49;;;;;;;16.52;9.40;;;;;;;13.58;49.10;101701.55;1740277;81;21323;-86
2022/09/10 00:11:16;;;;;;;18.60;10.08;;;;;;;13.55;48.93;101695.98;1756641;81;20915;-87
2022/09/10 00:13:44;;;;;;;16.12;9.43;;;;;;;13.54;48.99;101694.30;1760462;81;21404;-87
2022/09/10 00:16:12;;;;;;;16.25;9.90;;;;;;;13.50;49.08;101686.18;1760148;81;20868;-88
2022/09/10 00:18:40;;;;;;;16.05;8.30;;;;;;;13.50;48.97;101686.18;1760353;81;21125;-87
2022/09/10 00:21:10;;;;;;;9.70;6.75;;;;;;;13.49;48.98;101687.09;1760448;81;21140;-87
2022/09/10 00:23:38;;;;;;;7.15;5.65;;;;;;;13.48;49.16;101686.25;1753733;80;20920;-86
2022/09/10 00:26:18;;;;;;;7.87;4.83;;;;;;;13.45;49.17;101689.07;1741412;80;20986;-88
2022/09/10 00:28:45;;;;;;;8.08;5.92;;;;;;;13.42;49.30;101685.27;1754232;80;21163;-87
2022/09/10 00:31:12;;;;;;;11.65;6.10;;;;;;;13.40;49.43;101687.13;1724963;80;21489;-88
2022/09/10 00:33:39;;;;;;;6.95;4.75;;;;;;;13.36;49.53;101673.77;1742313;80;21767;-88
2022/09/10 00:36:21;;;;;;;8.00;3.87;;;;;;;13.33;49.50;101671.76;1755542;81;21452;-87
2022/09/10 00:38:49;;;;;;;9.80;4.75;;;;;;;13.32;49.74;101670.91;1731874;80;20951;-87
2022/09/10 00:41:16;;;;;;;5.12;3.83;;;;;;;13.28;49.83;101679.91;1735874;81;21006;-88
2022/09/10 00:43:54;;;;;;;5.17;3.22;;;;;;;13.24;50.17;101667.33;1742712;80;21046;-87
2022/09/10 00:46:28;;;;;;;7.17;4.15;;;;;;;13.21;50.33;101660.92;1747935;81;21251;-87
2022/09/10 00:48:55;;;;;;;;;;;;;;;13.19;50.67;101654.89;1734007;80;21011;-85
2022/09/10 00:51:25;;;;;;;3.10;2.72;;;;;;;13.16;50.29;101652.44;1735701;80;20153;-87
2022/09/10 00:53:52;;;;;;;5.90;3.02;;;;;;;13.10;49.85;101648.80;1759848;81;20999;-86
2022/09/10 00:56:19;;;;;;;7.10;3.75;;;;;;;13.03;49.50;101650.92;1726041;81;20915;-86
2022/09/10 00:58:46;;;;;;;4.00;3.60;;;;;;;12.99;49.69;101655.96;1759760;80;21959;-87
2022/09/10 01:01:14;;;;;;;5.22;4.72;;;;;;;12.95;50.35;101670.22;1728044;80;20897;-85
2022/09/10 01:03:42;;;;;;;5.55;4.87;;;;;;;12.92;50.33;101669.08;1712964;80;20907;-86
2022/09/10 01:06:09;;;;;;;6.53;5.40;;;;;;;12.89;50.10;101668.38;1748312;81;20939;-84
2022/09/10 01:08:36;;;;;;;7.35;5.05;;;;;;;12.86;50.39;101664.13;1756922;80;20979;-86
2022/09/10 01:11:24;;;;;;;8.18;5.25;;;;;;;12.83;50.50;101670.41;1736880;81;22933;-87
2022/09/10 01:14:20;;;;;;;8.38;5.22;;;;;;;12.81;49.98;101667.01;1734200;80;20869;-86
2022/09/10 01:17:08;;;;;;;7.80;4.60;;;;;;;12.79;50.27;101668.87;1753545;81;20986;-88
2022/09/10 01:20:16;;;;;;;5.28;3.72;;;;;;;12.79;50.55;101667.55;1748249;80;21022;-87
2022/09/10 01:23:10;;;;;;;4.12;3.62;;;;;;;12.81;50.61;101660.42;1753096;80;20928;-87
2022/09/10 01:26:06;;;;;;;8.63;3.83;;;;;;;12.81;50.75;101660.42;1748102;80;22257;-88
2022/09/10 01:28:55;;;;;;;6.72;3.25;;;;;;;12.81;50.48;101662.22;1753315;81;20935;-86
2022/09/10 01:31:34;;;;;;;5.85;3.45;;;;;;;12.77;50.70;101654.94;1745053;80;20904;-87
2022/09/10 01:34:07;;;;;;;4.08;3.50;;;;;;;12.76;50.57;101654.56;1743835;81;21516;-87
2022/09/10 01:36:38;;;;;;;5.03;3.27;;;;;;;12.76;50.59;101650.61;1739230;80;21006;-88
2022/09/10 01:39:05;;;;;;;7.45;4.58;;;;;;;12.75;50.69;101656.80;1714093;81;21275;-88
2022/09/10 01:41:32;;;;;;;10.32;3.95;;;;;;;12.73;50.57;101657.34;1719627;80;20904;-87
2022/09/10 01:44:09;;;;;;;6.67;3.80;;;;;;;12.70;50.34;101650.08;1741977;80;21419;-88
2022/09/10 01:46:52;;;;;;;4.00;3.50;;;;;;;12.68;50.69;101651.47;1731735;81;21010;-87
2022/09/10 01:49:38;;;;;;;6.05;3.20;;;;;;;12.69;50.77;101651.00;1758943;80;21010;-87
2022/09/10 01:52:24;;;;;;;7.28;5.10;;;;;;;12.68;50.71;101654.10;1731299;82;21155;-86
2022/09/10 01:55:17;;;;;;;11.08;5.45;;;;;;;12.64;50.70;101653.87;1693549;83;21453;-85
2022/09/10 01:57:54;;;;;;;12.45;5.35;;;;;;;12.60;50.89;101645.27;1695436;83;21054;-88
2022/09/10 02:00:21;;;;;;;9.75;5.45;;;;;;;12.59;51.01;101647.53;1693448;83;21532;-88
2022/09/10 02:03:02;;;;;;;13.95;9.50;;;;;;;12.59;51.11;101646.22;1681523;82;21489;-87
2022/09/10 02:05:30;;;;;;;11.63;8.63;;;;;;;12.58;51.00;101644.53;1724847;83;21318;-87
2022/09/10 02:08:06;;;;;;;27.93;12.78;;;;;;;12.58;51.06;101647.60;1721503;82;20979;-87
2022/09/10 02:10:33;;;;;;;42.48;20.92;;;;;;;12.57;51.13;101644.13;1724657;82;21393;-88
2022/09/10 02:13:00;;;;;;;33.98;16.17;;;;;;;12.57;50.80;101639.34;1723021;82;20948;-86
2022/09/10 02:15:41;;;;;;;33.80;16.87;;;;;;;12.55;50.63;101647.78;1699846;83;20896;-88
2022/09/10 02:18:22;;;;;;;25.00;11.97;;;;;;;12.54;50.75;101646.94;1706071;82;21273;-87
2022/09/10 02:20:51;;;;;;;20.55;10.20;;;;;;;12.52;50.50;101642.69;1722033;83;20979;-87
2022/09/10 02:23:20;;;;;;;13.93;7.90;;;;;;;12.47;50.58;101644.20;1722970;82;21412;-88
2022/09/10 02:25:48;;;;;;;19.77;7.30;;;;;;;12.47;50.52;101657.36;1720962;80;20959;-87
2022/09/10 02:28:14;;;;;;;8.83;5.17;;;;;;;12.47;50.57;101652.57;1724685;82;20987;-86
2022/09/10 02:30:43;;;;;;;9.23;5.45;;;;;;;12.47;50.44;101644.20;1722863;82;21409;-86
2022/09/10 02:33:15;;;;;;;8.28;4.72;;;;;;;12.47;50.27;101646.84;1720819;82;21026;-87
2022/09/10 02:35:42;;;;;;;5.47;3.90;;;;;;;12.48;50.11;101649.88;1719450;82;20975;-83
2022/09/10 02:38:11;;;;;;;7.95;4.17;;;;;;;12.48;50.10;101654.30;1722465;82;20965;-85
2022/09/10 02:40:39;;;;;;;10.72;6.33;;;;;;;12.48;50.11;101647.24;1723519;82;21350;-87
2022/09/10 02:43:07;;;;;;;10.18;6.75;;;;;;;12.48;50.32;101648.55;1722402;82;21757;-86
2022/09/10 02:45:35;;;;;;;7.87;5.10;;;;;;;12.49;50.05;101646.77;1722715;83;20904;-86
2022/09/10 02:48:03;;;;;;;9.58;5.78;;;;;;;12.50;50.06;101645.86;1724255;82;20932;-86
2022/09/10 02:50:32;;;;;;;12.70;9.23;;;;;;;12.50;50.01;101647.17;1705364;82;21086;-87
2022/09/10 02:53:00;;;;;;;16.82;11.75;;;;;;;12.51;50.13;101643.13;1725061;82;20896;-86
2022/09/10 02:55:27;;;;;;;21.57;10.32;;;;;;;12.52;50.09;101653.20;1725014;83;21095;-87
2022/09/10 02:57:54;;;;;;;16.45;9.63;;;;;;;12.52;50.01;101647.47;1724609;83;21276;-88
2022/09/10 03:00:21;;;;;;;17.27;9.20;;;;;;;12.53;50.10;101654.42;1720295;82;20924;-86
2022/09/10 03:02:48;;;;;;;7.78;5.50;;;;;;;12.54;50.29;101653.95;1722229;82;20853;-87
2022/09/10 03:05:16;;;;;;;5.97;4.87;;;;;;;12.54;50.36;101654.83;1721979;82;21046;-86
2022/09/10 03:07:42;;;;;;;5.12;3.27;;;;;;;12.55;50.50;101663.09;1724169;80;21214;-85
2022/09/10 03:10:09;;;;;;;6.75;3.50;;;;;;;12.58;50.36;101656.81;1723164;80;20900;-87
2022/09/10 03:12:38;;;;;;;5.70;2.87;;;;;;;12.59;50.09;101659.84;1726134;79;21181;-84
2022/09/10 03:15:06;;;;;;;4.20;2.47;;;;;;;12.58;50.26;101663.39;1727395;79;21185;-86
2022/09/10 03:17:32;;;;;;;3.05;2.33;;;;;;;12.58;50.56;101663.39;1723158;80;20940;-86
2022/09/10 03:19:59;;;;;;;5.72;2.75;;;;;;;12.57;50.69;101663.87;1724016;80;21126;-85
2022/09/10 03:22:26;;;;;;;4.45;3.50;;;;;;;12.57;50.60;101659.08;1727036;79;20979;-85
2022/09/10 03:24:53;;;;;;;6.55;4.05;;;;;;;12.57;50.97;101667.81;1723926;79;21057;-85
2022/09/10 03:27:20;;;;;;;8.25;3.72;;;;;;;12.56;50.60;101657.36;1722514;80;20947;-86
2022/09/10 03:29:46;;;;;;;3.95;3.30;;;;;;;12.51;50.85;101657.59;1725706;80;20916;-86
2022/09/10 03:32:13;;;;;;;6.25;3.60;;;;;;;12.54;51.08;101669.73;1722031;80;21139;-86
2022/09/10 03:34:40;;;;;;;5.53;3.12;;;;;;;12.47;51.05;101661.78;1725865;79;20959;-85
2022/09/10 03:37:06;;;;;;;6.70;3.83;;;;;;;12.49;51.42;101663.87;1725974;80;20911;-85
2022/09/10 03:39:34;;;;;;;8.25;4.33;;;;;;;12.48;51.42;101665.66;1700255;81;20900;-86
2022/09/10 03:42:03;;;;;;;7.20;4.05;;;;;;;12.50;51.47;101663.80;1725564;79;20880;-85
2022/09/10 03:44:29;;;;;;;9.73;5.70;;;;;;;12.52;51.57;101671.63;1723091;80;21253;-85
2022/09/10 03:46:55;;;;;;;13.38;7.53;;;;;;;12.54;51.37;101667.11;1725838;82;21009;-84
2022/09/10 03:49:22;;;;;;;17.32;10.25;;;;;;;12.54;51.19;101661.84;1723723;82;20976;-87
2022/09/10 03:51:48;;;;;;;19.20;10.80;;;;;;;12.53;51.19;101668.05;1721842;82;21019;-86
2022/09/10 03:54:15;;;;;;;15.93;8.68;;;;;;;12.49;51.08;101659.92;1720940;82;21480;-86
2022/09/10 03:56:43;;;;;;;11.88;7.08;;;;;;;12.49;50.86;101666.50;1721699;82;21205;-86
2022/09/10 03:59:12;;;;;;;9.63;7.05;;;;;;;12.50;50.71;101672.17;1718644;82;20935;-86
2022/09/10 04:01:39;;;;;;;12.53;8.00;;;;;;;12.48;50.56;101672.70;1723702;82;20943;-86
2022/09/10 04:04:07;;;;;;;9.63;6.83;;;;;;;12.48;50.78;101670.08;1722927;82;21022;-85
2022/09/10 04:06:34;;;;;;;8.83;7.50;;;;;;;12.50;50.82;101674.33;1723056;82;20844;-87
2022/09/10 04:09:02;;;;;;;12.85;7.47;;;;;;;12.52;50.49;101666.36;1723116;82;21391;-86
2022/09/10 04:11:29;;;;;;;8.90;7.28;;;;;;;12.53;50.40;101675.47;1724814;82;21058;-86
2022/09/10 04:13:57;;;;;;;19.65;9.00;;;;;;;12.54;50.53;101673.69;1724979;83;21548;-87
2022/09/10 04:16:24;;;;;;;13.18;7.75;;;;;;;12.56;50.50;101670.07;1720923;82;21544;-85
2022/09/10 04:18:51;;;;;;;8.95;5.90;;;;;;;12.58;50.82;101666.02;1723308;82;20900;-87
2022/09/10 04:21:19;;;;;;;9.15;4.80;;;;;;;12.61;50.63;101672.47;1721869;82;21116;-87
2022/09/10 04:23:47;;;;;;;6.85;4.15;;;;;;;12.63;50.54;101670.61;1722746;82;21374;-87
2022/09/10 04:26:16;;;;;;;6.83;4.50;;;;;;;12.64;50.53;101676.23;1717156;82;20912;-87
2022/09/10 04:28:45;;;;;;;10.08;4.40;;;;;;;12.66;50.09;101678.33;1721223;82;20971;-86
2022/09/10 04:31:11;;;;;;;15.38;6.67;;;;;;;12.68;49.92;101671.69;1721032;82;21587;-87
2022/09/10 04:33:39;;;;;;;10.13;4.78;;;;;;;12.68;49.82;101679.11;1691769;83;21161;-85
2022/09/10 04:36:06;;;;;;;11.05;4.33;;;;;;;12.68;49.93;101673.84;1699031;84;21074;-85
2022/09/10 04:38:38;;;;;;;10.50;3.90;;;;;;;12.71;49.92;101678.09;1698858;83;21411;-86
2022/09/10 04:41:03;;;;;;;5.53;3.30;;;;;;;12.70;49.92;101668.51;1684820;84;21407;-85
2022/09/10 04:43:30;;;;;;;11.22;5.12;;;;;;;12.71;50.03;101672.35;1706095;82;20923;-87
2022/09/10 04:45:58;;;;;;;4.87;3.00;;;;;;;12.74;50.24;101672.21;1666950;82;21517;-86
2022/09/10 04:48:25;;;;;;;8.48;2.98;;;;;;;12.74;50.23;101673.53;1720309;82;20979;-86
2022/09/10 04:50:52;;;;;;;6.03;2.92;;;;;;;12.73;50.18;101671.81;1725011;82;20923;-85
2022/09/10 04:53:21;;;;;;;4.90;2.85;;;;;;;12.72;50.29;101673.23;1725861;82;21110;-86
2022/09/10 04:55:48;;;;;;;10.48;3.10;;;;;;;12.75;50.50;101677.84;1724269;82;21509;-84
2022/09/10 04:58:15;;;;;;;6.28;2.92;;;;;;;12.78;50.67;101677.70;1721895;82;20889;-84
2022/09/10 05:00:43;;;;;;;4.25;2.92;;;;;;;12.81;50.55;101679.33;1721417;82;20900;-86
2022/09/10 05:03:10;;;;;;;4.40;2.50;;;;;;;12.81;50.37;101677.53;1700646;82;21403;-86
2022/09/10 05:05:38;;;;;;;4.22;2.55;;;;;;;12.82;50.54;101685.80;1656481;84;20995;-87
2022/09/10 05:08:06;;;;;;;4.87;2.65;;;;;;;12.83;50.26;101688.00;1695955;84;21053;-87
2022/09/10 05:10:37;;;;;;;7.40;3.35;;;;;;;12.82;50.36;101687.13;1699706;84;21285;-86
2022/09/10 05:13:08;;;;;;;3.47;2.50;;;;;;;12.79;50.27;101683.34;1688092;84;21046;-87
2022/09/10 05:15:34;;;;;;;7.33;2.85;;;;;;;12.88;50.31;101683.80;1703177;84;21031;-84
2022/09/10 05:18:03;;;;;;;7.25;3.33;;;;;;;12.90;50.17;101686.73;1717443;81;21407;-85
2022/09/10 05:20:34;;;;;;;3.80;2.58;;;;;;;12.89;49.98;101684.17;1717484;82;21006;-87
2022/09/10 05:23:04;;;;;;;6.45;2.90;;;;;;;12.89;49.98;101681.06;1729836;82;21312;-88
2022/09/10 05:25:29;;;;;;;4.45;3.20;;;;;;;12.92;50.17;101684.03;1698722;82;20999;-86
2022/09/10 05:27:59;;;;;;;8.23;3.65;;;;;;;12.91;50.13;101692.84;1701264;82;21040;-87
2022/09/10 05:30:31;;;;;;;4.47;3.72;;;;;;;12.92;49.96;101685.34;1733552;82;21040;-88
2022/09/10 05:32:55;;;;;;;11.18;6.42;;;;;;;12.92;50.06;101686.66;1733562;79;21084;-87
2022/09/10 05:35:25;;;;;;;15.68;10.25;;;;;;;12.90;49.85;101682.78;1704969;81;21195;-86
2022/09/10 05:37:56;;;;;;;10.78;5.62;;;;;;;12.89;49.89;101684.17;1722304;80;20955;-86
2022/09/10 05:40:24;;;;;;;14.68;7.25;;;;;;;12.89;50.10;101676.28;1706645;81;20987;-87
2022/09/10 05:42:54;;;;;;;13.25;8.45;;;;;;;12.89;50.00;101677.12;1724962;79;21014;-87
2022/09/10 05:45:22;;;;;;;17.40;9.43;;;;;;;12.89;49.98;101677.12;1724943;80;20951;-87
2022/09/10 05:47:51;;;;;;;30.62;18.50;;;;;;;12.91;49.92;101683.63;1722819;80;21148;-88
2022/09/10 05:50:20;;;;;;;27.27;18.15;;;;;;;12.93;49.71;101681.77;1722254;80;20948;-87
2022/09/10 05:52:47;;;;;;;23.05;14.05;;;;;;;12.96;49.72;101688.17;1726714;79;20974;-87
2022/09/10 05:55:14;;;;;;;25.32;13.00;;;;;;;12.97;49.61;101690.73;1722965;79;21042;-88
2022/09/10 05:57:41;;;;;;;23.12;12.50;;;;;;;12.98;49.67;101685.00;1726127;79;21010;-89
2022/09/10 06:00:10;;;;;;;15.30;9.13;;;;;;;12.98;49.77;101688.95;1725343;80;21072;-88
2022/09/10 06:02:44;;;;;;;12.78;9.90;;;;;;;13.00;49.92;101692.35;1726947;81;20999;-88
2022/09/10 06:05:14;;;;;;;25.95;11.75;;;;;;;13.03;49.61;101694.84;1718259;80;20927;-88
2022/09/10 06:07:44;;;;;;;23.38;14.87;;;;;;;13.05;49.65;101704.83;1722318;80;21253;-87
2022/09/10 06:10:17;;;;;;;19.75;13.30;;;;;;;13.05;49.56;101706.15;1746137;78;20915;-87
2022/09/10 06:12:51;;;;;;;20.15;10.85;;;;;;;13.02;49.76;101712.88;1734034;79;21231;-86
2022/09/10 06:15:19;;;;;;;9.73;6.87;;;;;;;13.02;49.75;101710.24;1715839;81;20972;-87
2022/09/10 06:17:56;;;;;;;9.83;7.12;;;;;;;13.01;49.71;101706.77;1735157;79;21024;-87
2022/09/10 06:20:24;;;;;;;10.63;6.50;;;;;;;13.01;49.58;101701.97;1740916;79;21056;-87
2022/09/10 06:22:53;;;;;;;7.53;5.05;;;;;;;13.01;49.73;101701.97;1774318;80;21428;-89
2022/09/10 06:25:20;;;;;;;7.87;4.40;;;;;;;13.02;49.74;101707.61;1730411;82;21295;-88
2022/09/10 06:27:46;;;;;;;6.28;3.35;;;;;;;13.02;49.66;101699.23;1741244;81;21481;-89
2022/09/10 06:30:14;;;;;;;7.60;4.42;;;;;;;13.06;49.61;101698.62;1776444;80;20919;-89
2022/09/10 06:32:43;;;;;;;7.05;5.10;;;;;;;13.06;49.61;101698.62;1770862;80;21551;-88
2022/09/10 06:35:09;;;;;;;10.48;3.67;;;;;;;13.10;49.64;101686.16;1764991;80;21033;-86
2022/09/10 06:37:37;;;;;;;7.55;3.85;;;;;;;13.15;49.62;101686.27;1746551;81;21132;-88
2022/09/10 06:40:06;;;;;;;8.45;4.42;;;;;;;13.20;49.38;101683.39;1726427;82;21009;-87
2022/09/10 06:42:33;;;;;;;6.70;4.20;;;;;;;13.24;49.18;101687.56;1764696;79;20959;-89
2022/09/10 06:45:06;;;;;;;12.70;5.35;;;;;;;13.29;49.16;101684.71;1740153;80;20942;-87
2022/09/10 06:47:34;;;;;;;6.55;4.72;;;;;;;13.33;49.20;101687.09;1774482;80;20860;-87
2022/09/10 06:50:01;;;;;;;6.45;5.80;;;;;;;13.37;49.18;101682.05;1774667;79;22015;-86
2022/09/10 06:52:29;;;;;;;10.03;5.42;;;;;;;13.44;49.29;101685.19;1756622;80;20951;-87
2022/09/10 06:54:58;;;;;;;12.35;6.92;;;;;;;13.50;48.94;101686.66;1783798;80;20833;-88
2022/09/10 06:57:28;;;;;;;10.55;5.65;;;;;;;13.54;48.89;101678.49;1744705;80;20883;-88
2022/09/10 06:59:55;;;;;;;9.73;6.50;;;;;;;13.59;48.46;101680.87;1782410;80;20970;-87
2022/09/10 07:02:26;;;;;;;9.58;6.28;;;;;;;13.61;48.34;101689.06;1776244;78;21297;-88
2022/09/10 07:04:54;;;;;;;10.82;6.85;;;;;;;13.64;48.33;101687.56;1779983;80;21002;-86
2022/09/10 07:07:21;;;;;;;14.78;6.33;;;;;;;13.65;48.18;101681.37;1747042;81;21545;-88
2022/09/10 07:09:54;;;;;;;9.60;5.12;;;;;;;13.67;48.32;101674.23;1723959;82;21138;-87
2022/09/10 07:12:20;;;;;;;7.40;4.50;;;;;;;13.73;48.25;101676.13;1774275;80;20959;-89
2022/09/10 07:14:47;;;;;;;6.87;4.22;;;;;;;13.79;48.12;101677.11;1759606;80;21107;-87
2022/09/10 07:17:14;;;;;;;10.28;6.05;;;;;;;13.80;48.18;101661.66;1768375;80;20955;-89
2022/09/10 07:19:41;;;;;;;8.30;5.10;;;;;;;13.84;47.90;101677.22;1775571;80;21021;-90
2022/09/10 07:22:10;;;;;;;12.00;6.20;;;;;;;13.84;47.90;101677.22;1777010;80;20946;-88
2022/09/10 07:24:40;;;;;;;16.95;6.12;;;;;;;13.88;47.66;101684.50;1757366;80;21058;-88
2022/09/10 07:27:09;;;;;;;7.87;5.00;;;;;;;13.90;47.83;101677.35;1774393;80;21284;-88
2022/09/10 07:29:38;;;;;;;9.50;5.28;;;;;;;13.93;47.69;101678.48;1758839;80;21045;-88
2022/09/10 07:32:07;;;;;;;11.68;6.00;;;;;;;13.95;47.57;101670.02;1764911;79;21381;-87
2022/09/10 07:34:33;;;;;;;9.45;5.75;;;;;;;13.97;47.65;101665.51;1769785;80;20931;-87
2022/09/10 07:37:03;;;;;;;9.55;4.92;;;;;;;14.01;47.88;101670.16;1777567;80;21463;-87
2022/09/10 07:39:30;;;;;;;9.43;4.50;;;;;;;14.07;47.87;101672.41;1776834;80;21923;-88
2022/09/10 07:41:59;;;;;;;8.25;4.60;;;;;;;14.10;47.89;101669.62;1766786;80;21049;-88
2022/09/10 07:44:27;;;;;;;13.90;4.87;;;;;;;14.15;48.08;101679.89;1779160;80;20965;-88
2022/09/10 07:46:56;;;;;;;9.65;5.80;;;;;;;14.18;48.14;101678.39;1768564;79;20970;-88
2022/09/10 07:49:23;;;;;;;8.58;4.17;;;;;;;14.22;48.53;101677.27;1777659;80;20985;-89
2022/09/10 07:51:52;;;;;;;7.65;4.80;;;;;;;14.28;48.47;101680.87;1769138;80;21747;-88
2022/09/10 07:54:18;;;;;;;9.05;4.97;;;;;;;14.31;48.52;101672.30;1774023;80;20859;-88
2022/09/10 07:56:47;;;;;;;9.05;5.97;;;;;;;14.38;48.64;101674.58;1780356;80;21353;-87
2022/09/10 07:59:15;;;;;;;18.40;9.35;;;;;;;14.41;48.72;101670.46;1765175;80;21140;-88
2022/09/10 08:01:49;;;;;;;17.15;8.83;;;;;;;14.43;48.21;101672.06;1767864;80;21420;-85
2022/09/10 08:04:17;;;;;;;19.80;9.48;;;;;;;14.42;48.00;101669.51;1773470;80;21219;-87
2022/09/10 08:06:45;;;;;;;16.30;8.70;;;;;;;14.39;48.22;101669.22;1774437;80;20973;-88
2022/09/10 08:09:13;;;;;;;16.32;8.58;;;;;;;14.38;48.11;101667.51;1763514;80;20919;-88
2022/09/10 08:11:44;;;;;;;8.28;6.25;;;;;;;14.44;48.46;101686.10;1772553;80;21175;-88
2022/09/10 08:14:12;;;;;;;11.18;5.70;;;;;;;14.48;48.08;101675.27;1782960;80;21049;-88
2022/09/10 08:16:39;;;;;;;12.65;5.87;;;;;;;14.48;48.08;101675.27;1767083;80;21135;-87
2022/09/10 08:19:08;;;;;;;14.58;6.67;;;;;;;14.49;47.99;101674.31;1760654;80;21502;-87
2022/09/10 08:21:36;;;;;;;12.55;6.50;;;;;;;14.49;47.99;101674.31;1779733;80;21584;-88
2022/09/10 08:24:05;;;;;;;11.22;5.45;;;;;;;14.51;48.21;101680.35;1768368;80;20955;-87
2022/09/10 08:26:32;;;;;;;9.30;5.83;;;;;;;14.53;48.28;101678.95;1772242;79;20950;-86
2022/09/10 08:29:02;;;;;;;10.63;6.22;;;;;;;14.53;48.13;101676.31;1781872;80;21108;-87
2022/09/10 08:31:30;;;;;;;17.67;6.35;;;;;;;14.52;48.27;101675.95;1777310;80;21054;-89
2022/09/10 08:33:59;;;;;;;12.47;5.70;;;;;;;14.54;48.36;101675.39;1767405;80;20899;-88
2022/09/10 08:36:26;;;;;;;13.43;5.53;;;;;;;14.55;48.42;101677.11;1777483;80;20939;-88
2022/09/10 08:38:54;;;;;;;9.10;6.20;;;;;;;14.56;48.33;101678.79;1781158;80;21013;-90
2022/09/10 08:41:41;;;;;;;8.33;5.03;;;;;;;14.59;48.51;101677.78;1769977;79;21168;-87
2022/09/10 08:44:49;;;;;;;13.62;5.42;;;;;;;14.60;48.22;101682.95;1772687;80;20919;-89
2022/09/10 08:47:40;;;;;;;7.80;5.08;;;;;;;14.60;48.22;101682.95;1770704;79;20990;-88
2022/09/10 08:50:40;;;;;;;12.73;5.42;;;;;;;14.60;48.47;101670.23;1768896;80;20971;-86
2022/09/10 08:53:33;;;;;;;10.55;4.85;;;;;;;14.60;48.36;101668.91;1769623;80;21291;-85
2022/09/10 08:56:09;;;;;;;13.50;6.25;;;;;;;14.60;48.36;101668.91;1772992;80;21142;-86
2022/09/10 08:58:41;;;;;;;11.15;4.53;;;;;;;14.62;48.61;101665.70;1771561;79;20950;-86
2022/09/10 09:01:12;;;;;;;10.88;4.35;;;;;;;14.65;48.69;101654.95;1763956;80;20872;-89
2022/09/10 09:03:48;;;;;;;11.48;3.52;;;;;;;14.65;48.69;101654.95;1763952;80;20879;-87
2022/09/10 09:06:33;;;;;;;7.75;3.50;;;;;;;14.65;48.91;101652.31;1768183;79;20960;-88
2022/09/10 09:09:02;;;;;;;7.60;3.47;;;;;;;14.66;49.35;101653.55;1774869;80;21326;-88
2022/09/10 09:11:39;;;;;;;6.97;4.00;;;;;;;14.71;49.27;101657.22;1780889;80;20946;-88
2022/09/10 09:14:39;;;;;;;9.98;4.25;;;;;;;14.71;49.27;101657.22;1764063;80;20900;-88
2022/09/10 09:17:58;;;;;;;9.80;3.83;;;;;;;14.71;49.15;101650.63;1770152;80;20994;-88
2022/09/10 09:20:45;;;;;;;5.78;3.95;;;;;;;14.73;49.14;101651.38;1759614;80;20900;-89
2022/09/10 09:23:28;;;;;;;9.13;3.25;;;;;;;14.78;49.02;101648.45;1758719;80;21238;-88
2022/09/10 09:26:02;;;;;;;11.70;4.30;;;;;;;14.96;49.10;101634.59;1738671;80;21091;-87
2022/09/10 09:28:53;;;;;;;10.82;4.25;;;;;;;15.06;48.87;101622.52;1764546;80;20949;-88
2022/09/10 09:31:27;;;;;;;11.33;4.55;;;;;;;15.06;48.87;101622.52;1778977;79;20915;-87
2022/09/10 09:34:08;;;;;;;13.00;5.85;;;;;;;15.17;48.48;101626.65;1774283;80;20986;-86
2022/09/10 09:36:43;;;;;;;22.65;8.90;;;;;;;15.25;48.38;101623.05;1783966;80;21409;-88
2022/09/10 09:39:16;;;;;;;16.20;7.10;;;;;;;15.39;48.09;101626.61;1769454;80;20950;-88
2022/09/10 09:42:02;;;;;;;19.42;7.37;;;;;;;15.50;46.81;101632.89;1762952;80;21512;-89
2022/09/10 09:44:38;;;;;;;18.00;7.58;;;;;;;15.58;46.66;101628.42;1773646;80;21311;-88
2022/09/10 09:47:08;;;;;;;9.10;4.62;;;;;;;15.69;46.66;101628.56;1761517;80;21436;-86
2022/09/10 09:49:38;;;;;;;9.85;4.20;;;;;;;15.78;45.27;101622.34;1771860;80;21264;-90
2022/09/10 09:52:21;;;;;;;8.65;3.25;;;;;;;15.80;44.81;101621.77;1772162;80;20978;-86
2022/09/10 09:54:55;;;;;;;13.55;5.72;;;;;;;15.81;44.85;101620.36;1771005;80;21470;-88
2022/09/10 09:57:22;;;;;;;19.67;11.15;;;;;;;15.86;44.84;101618.72;1773513;80;21040;-88
2022/09/10 09:59:49;;;;;;;24.98;13.75;;;;;;;15.89;44.61;101619.34;1766128;80;20900;-88
2022/09/10 10:02:24;;;;;;;21.25;9.55;;;;;;;15.91;44.67;101620.09;1779641;80;21137;-87
2022/09/10 10:05:23;;;;;;;15.90;8.03;;;;;;;15.94;44.61;101626.98;1755967;80;21458;-86
2022/09/10 10:07:50;;;;;;;13.03;5.83;;;;;;;15.97;44.22;101615.37;1779820;80;21007;-87
2022/09/10 10:10:25;;;;;;;7.65;4.83;;;;;;;15.93;44.15;101622.65;1780308;80;20926;-87
2022/09/10 10:12:53;;;;;;;5.22;3.35;;;;;;;15.90;44.18;101618.90;1776561;80;21652;-87
2022/09/10 10:15:40;;;;;;;11.35;4.58;;;;;;;15.87;43.95;101626.53;1776271;80;21825;-89
2022/09/10 10:18:30;;;;;;;21.50;7.20;;;;;;;15.84;44.29;101617.49;1778601;80;21342;-87
2022/09/10 10:21:19;;;;;;;15.35;7.12;;;;;;;15.81;44.31;101617.70;1767799;80;21392;-87
2022/09/10 10:23:45;;;;;;;8.63;3.80;;;;;;;15.81;44.69;101617.70;1770708;80;20920;-89
2022/09/10 10:26:35;;;;;;;7.22;3.33;;;;;;;15.81;44.27;101620.36;1758137;80;21022;-87
2022/09/10 10:29:18;;;;;;;11.45;4.30;;;;;;;15.78;44.33;101618.38;1780665;79;21089;-86
2022/09/10 10:31:47;;;;;;;7.67;3.45;;;;;;;15.73;44.43;101608.94;1777902;80;20872;-87
2022/09/10 10:34:34;;;;;;;14.07;4.78;;;;;;;15.73;44.49;101612.06;1773260;80;20927;-87
2022/09/10 10:37:15;;;;;;;15.65;7.53;;;;;;;15.71;44.86;101604.70;1764452;80;20942;-87
2022/09/10 10:40:07;;;;;;;14.40;6.53;;;;;;;15.71;44.86;101604.70;1784055;80;20908;-88
2022/09/10 10:42:52;;;;;;;12.35;6.45;;;;;;;15.71;44.91;101596.77;1756966;80;21104;-87
2022/09/10 10:45:42;;;;;;;8.83;5.08;;;;;;;15.73;45.04;101599.69;1743935;80;21480;-89
2022/09/10 10:48:21;;;;;;;10.53;4.78;;;;;;;15.77;45.05;101600.82;1784435;80;20970;-85
2022/09/10 10:54:28;;;;;;;6.08;3.58;;;;;;;15.85;45.05;101584.81;1799527;78;22427;-88
2022/09/10 10:57:18;;;;;;;8.13;3.42;;;;;;;15.84;44.95;101580.46;1773977;80;20951;-86
2022/09/10 11:00:06;;;;;;;6.25;3.70;;;;;;;15.87;44.91;101576.76;1773834;79;21278;-86
2022/09/10 11:02:53;;;;;;;10.53;3.70;;;;;;;15.88;44.96;101577.15;1768670;79;20903;-87
2022/09/10 11:05:34;;;;;;;8.60;3.35;;;;;;;15.90;45.10;101575.25;1772119;79;20931;-88
2022/09/10 11:08:32;;;;;;;7.85;5.15;;;;;;;15.95;45.24;101570.00;1789191;80;20978;-89
2022/09/10 11:11:13;;;;;;;8.95;4.80;;;;;;;15.95;45.24;101570.00;1792163;79;20935;-88
2022/09/10 11:14:07;;;;;;;13.35;6.80;;;;;;;16.00;44.64;101555.14;1786372;80;21151;-86
2022/09/10 11:16:42;;;;;;;10.20;7.70;;;;;;;16.00;44.64;101555.14;1774930;79;20879;-87
2022/09/10 11:19:15;;;;;;;13.78;7.83;;;;;;;16.04;44.90;101548.69;1783549;79;20904;-87
2022/09/10 11:21:59;;;;;;;10.63;6.53;;;;;;;16.08;44.74;101546.70;1767309;80;21009;-86
2022/09/10 11:24:43;;;;;;;20.40;10.13;;;;;;;16.11;45.03;101537.21;1787381;80;20999;-85
2022/09/10 11:27:19;;;;;;;17.45;10.13;;;;;;;16.16;45.21;101539.93;1768964;80;21257;-89
2022/09/10 11:29:54;;;;;;;22.58;10.18;;;;;;;16.21;45.17;101534.77;1766789;80;20894;-88
2022/09/10 11:32:48;;;;;;;17.67;11.55;;;;;;;16.24;44.99;101528.80;1792418;80;20986;-89
2022/09/10 11:35:26;;;;;;;20.27;10.80;;;;;;;16.29;45.01;101524.02;1743201;81;20923;-89
2022/09/10 11:38:25;;;;;;;14.98;9.78;;;;;;;16.34;45.01;101519.73;1719724;83;20903;-87
2022/09/10 11:41:23;;;;;;;12.47;8.00;;;;;;;16.39;44.68;101531.34;1724138;83;21193;-90
2022/09/10 11:44:16;;;;;;;14.28;6.08;;;;;;;16.44;44.80;101515.98;1722898;82;21550;-92
2022/09/10 11:47:20;;;;;;;15.50;7.53;;;;;;;16.48;44.61;101514.81;1715371;83;20940;-88
2022/09/10 11:50:09;;;;;;;15.05;6.65;;;;;;;16.49;44.76;101506.73;1726311;82;21185;-89
2022/09/10 11:52:36;;;;;;;20.60;5.60;;;;;;;16.57;45.30;101506.21;1717977;82;21125;-89